createdAt,value
2022-08-17T00:00:00.486Z,5.00
2022-08-17T00:01:06.287Z,8.50
2022-08-17T00:02:22.435Z,8.00
2022-08-17T00:03:24.606Z,7.50
2022-08-17T00:04:27.476Z,9.40
2022-08-17T00:05:33.010Z,7.55
2022-08-17T00:06:36.423Z,8.50
2022-08-17T00:07:39.679Z,8.40
2022-08-17T00:08:48.007Z,9.40
2022-08-17T00:09:50.480Z,7.30
2022-08-17T00:10:54.332Z,8.60
2022-08-17T00:12:41.776Z,7.09
2022-08-17T00:13:13.718Z,8.40
2022-08-17T00:14:18.342Z,7.70
2022-08-17T00:15:22.580Z,8.20
2022-08-17T00:16:56.074Z,8.90
2022-08-17T00:17:34.514Z,7.90
2022-08-17T00:19:02.047Z,8.20
2022-08-17T00:19:42.747Z,7.50
2022-08-17T00:20:45.913Z,7.50
2022-08-17T00:22:29.445Z,8.40
2022-08-17T00:24:19.911Z,9.20
2022-08-17T00:25:22.494Z,6.20
2022-08-17T00:26:43.489Z,8.00
2022-08-17T00:27:31.359Z,7.60
2022-08-17T00:28:34.348Z,7.70
2022-08-17T00:29:37.068Z,8.60
2022-08-17T00:30:51.262Z,6.90
2022-08-17T00:31:50.185Z,9.00
2022-08-17T00:33:13.639Z,8.10
2022-08-17T00:33:57.316Z,7.20
2022-08-17T00:35:00.198Z,3.73
2022-08-17T00:36:04.424Z,9.10
2022-08-17T00:37:06.814Z,7.60
2022-08-17T00:38:09.282Z,8.20
2022-08-17T00:39:11.438Z,7.60
2022-08-17T00:40:14.877Z,6.70
2022-08-17T00:41:20.464Z,9.20
2022-08-17T00:42:26.350Z,8.20
2022-08-17T00:43:45.767Z,7.50
2022-08-17T00:44:48.125Z,7.50
2022-08-17T00:45:50.568Z,7.40
2022-08-17T00:46:54.434Z,7.82
2022-08-17T00:47:56.855Z,8.20
2022-08-17T00:49:00.947Z,8.80
2022-08-17T00:50:11.184Z,8.60
2022-08-17T00:51:24.605Z,7.50
2022-08-17T00:53:44.674Z,9.70
2022-08-17T00:54:47.685Z,8.70
2022-08-17T00:55:50.009Z,8.30
2022-08-17T00:58:06.278Z,7.70
2022-08-17T00:59:21.867Z,8.20
2022-08-17T01:00:28.646Z,8.30
2022-08-17T01:01:43.992Z,7.90
2022-08-17T01:02:46.590Z,3.90
2022-08-17T01:03:50.899Z,5.20
2022-08-17T01:04:54.111Z,9.00
2022-08-17T01:05:58.823Z,7.90
2022-08-17T01:07:01.619Z,4.40
2022-08-17T01:08:06.515Z,9.40
2022-08-17T01:09:08.803Z,7.60
2022-08-17T01:10:58.195Z,8.27
2022-08-17T01:11:17.091Z,8.70
2022-08-17T01:12:19.451Z,7.20
2022-08-17T01:13:23.041Z,8.10
2022-08-17T01:14:26.201Z,7.80
2022-08-17T01:15:31.646Z,6.90
2022-08-17T01:16:35.980Z,4.50
2022-08-17T01:17:39.117Z,6.80
2022-08-17T01:18:42.422Z,8.20
2022-08-17T01:19:44.855Z,5.90
2022-08-17T01:20:49.622Z,7.20
2022-08-17T01:22:04.301Z,9.00
2022-08-17T01:23:06.918Z,7.80
2022-08-17T01:24:09.299Z,8.20
2022-08-17T01:25:12.800Z,5.30
2022-08-17T01:26:16.195Z,4.50
2022-08-17T01:27:20.660Z,7.80
2022-08-17T01:28:33.405Z,8.30
2022-08-17T01:29:30.462Z,8.40
2022-08-17T01:30:58.701Z,6.09
2022-08-17T01:31:41.077Z,7.60
2022-08-17T01:32:45.945Z,7.60
2022-08-17T01:33:48.458Z,7.70
2022-08-17T01:34:51.132Z,9.40
2022-08-17T01:35:54.003Z,8.90
2022-08-17T01:36:58.303Z,8.40
2022-08-17T01:38:00.891Z,7.80
2022-08-17T01:39:04.835Z,5.70
2022-08-17T01:40:24.157Z,7.80
2022-08-17T01:41:27.511Z,8.00
2022-08-17T01:42:51.383Z,7.10
2022-08-17T01:43:57.473Z,7.60
2022-08-17T01:45:03.482Z,7.80
2022-08-17T01:46:07.074Z,8.60
2022-08-17T01:47:09.871Z,7.60
2022-08-17T01:48:12.346Z,7.90
2022-08-17T01:49:14.511Z,8.90
2022-08-17T01:51:31.544Z,4.90
2022-08-17T01:52:34.312Z,5.70
2022-08-17T01:53:40.748Z,7.27
2022-08-17T01:54:45.783Z,8.50
2022-08-17T01:55:52.098Z,8.00
2022-08-17T01:56:54.656Z,8.40
2022-08-17T01:57:57.761Z,7.00
2022-08-17T01:59:02.399Z,8.20
2022-08-17T02:00:07.415Z,7.50
2022-08-17T02:01:12.225Z,8.40
2022-08-17T02:02:31.204Z,7.50
2022-08-17T02:03:20.699Z,7.00
2022-08-17T02:04:23.184Z,7.70
2022-08-17T02:05:26.149Z,8.90
2022-08-17T02:06:30.112Z,7.60
2022-08-17T02:07:32.513Z,7.70
2022-08-17T02:08:37.030Z,7.10
2022-08-17T02:09:42.124Z,7.20
2022-08-17T02:10:46.703Z,7.70
2022-08-17T02:11:49.921Z,3.70
2022-08-17T02:12:52.952Z,9.20
2022-08-17T02:14:02.770Z,7.18
2022-08-17T02:15:01.232Z,8.90
2022-08-17T02:16:03.854Z,9.10
2022-08-17T02:17:06.059Z,8.70
2022-08-17T02:18:08.732Z,6.20
2022-08-17T02:19:13.958Z,8.30
2022-08-17T02:20:18.188Z,8.30
2022-08-17T02:21:22.415Z,9.50
2022-08-17T02:22:24.699Z,8.50
2022-08-17T02:23:28.212Z,7.90
2022-08-17T02:25:01.252Z,8.30
2022-08-17T02:25:37.156Z,8.10
2022-08-17T02:26:40.228Z,9.00
2022-08-17T02:27:43.762Z,8.27
2022-08-17T02:28:46.043Z,8.20
2022-08-17T02:29:48.416Z,7.10
2022-08-17T02:31:01.434Z,7.20
2022-08-17T02:31:56.776Z,7.70
2022-08-17T02:32:59.819Z,8.90
2022-08-17T02:34:05.353Z,7.50
2022-08-17T02:35:08.315Z,5.20
2022-08-17T02:36:11.958Z,8.60
2022-08-17T02:37:14.691Z,7.10
2022-08-17T02:38:17.049Z,4.10
2022-08-17T02:39:19.432Z,9.20
2022-08-17T02:40:36.308Z,8.60
2022-08-17T02:41:27.723Z,8.30
2022-08-17T02:42:32.646Z,9.40
2022-08-17T02:43:35.115Z,7.20
2022-08-17T02:44:39.670Z,8.40
2022-08-17T02:45:42.386Z,9.30
2022-08-17T02:46:44.947Z,7.60
2022-08-17T02:47:47.189Z,8.20
2022-08-17T02:48:49.592Z,7.10
2022-08-17T02:49:55.627Z,8.90
2022-08-17T02:50:59.232Z,8.20
2022-08-17T02:52:05.613Z,7.20
2022-08-17T02:53:08.394Z,9.10
2022-08-17T02:54:39.638Z,7.80
2022-08-17T02:56:35.958Z,7.70
2022-08-17T02:57:39.402Z,8.20
2022-08-17T02:58:41.761Z,8.40
2022-08-17T02:59:48.805Z,8.80
2022-08-17T03:00:49.049Z,8.30
2022-08-17T03:01:51.837Z,7.50
2022-08-17T03:02:55.107Z,8.80
2022-08-17T03:03:58.183Z,8.40
2022-08-17T03:05:01.478Z,8.91
2022-08-17T03:06:04.965Z,10.20
2022-08-17T03:07:07.366Z,7.30
2022-08-17T03:08:13.137Z,8.30
2022-08-17T03:09:14.090Z,7.90
2022-08-17T03:10:17.278Z,8.64
2022-08-17T03:11:21.782Z,8.40
2022-08-17T03:12:26.299Z,9.10
2022-08-17T03:13:28.658Z,5.90
2022-08-17T03:14:31.155Z,7.70
2022-08-17T03:15:34.717Z,8.40
2022-08-17T03:16:37.206Z,7.90
2022-08-17T03:17:41.608Z,8.80
2022-08-17T03:18:56.779Z,8.70
2022-08-17T03:19:59.286Z,8.70
2022-08-17T03:21:02.010Z,7.60
2022-08-17T03:22:35.368Z,8.10
2022-08-17T03:23:12.242Z,9.20
2022-08-17T03:24:15.320Z,8.00
2022-08-17T03:25:27.701Z,9.40
2022-08-17T03:26:31.735Z,9.20
2022-08-17T03:27:35.107Z,8.40
2022-08-17T03:28:38.281Z,7.60
2022-08-17T03:29:40.645Z,7.00
2022-08-17T03:30:43.347Z,9.60
2022-08-17T03:31:46.700Z,6.80
2022-08-17T03:32:50.680Z,8.40
2022-08-17T03:33:53.574Z,7.80
2022-08-17T03:35:00.035Z,7.90
2022-08-17T03:36:03.935Z,6.20
2022-08-17T03:37:06.334Z,8.50
2022-08-17T03:38:10.302Z,7.40
2022-08-17T03:39:12.690Z,6.20
2022-08-17T03:40:17.139Z,8.40
2022-08-17T03:41:21.786Z,8.80
2022-08-17T03:42:32.331Z,9.90
2022-08-17T03:43:31.328Z,5.90
2022-08-17T03:44:33.993Z,8.00
2022-08-17T03:45:36.622Z,8.90
2022-08-17T03:46:41.174Z,9.20
2022-08-17T03:47:43.966Z,8.50
2022-08-17T03:48:47.125Z,5.90
2022-08-17T03:49:49.384Z,8.90
2022-08-17T03:50:52.918Z,7.90
2022-08-17T03:51:55.646Z,7.90
2022-08-17T03:52:58.217Z,8.73
2022-08-17T03:54:00.780Z,8.00
2022-08-17T03:55:05.109Z,7.30
2022-08-17T03:56:08.068Z,7.90
2022-08-17T03:57:10.833Z,9.18
2022-08-17T03:58:13.400Z,8.00
2022-08-17T03:59:21.007Z,7.40
2022-08-17T04:00:24.277Z,9.20
2022-08-17T04:01:26.722Z,8.10
2022-08-17T04:02:31.807Z,8.73
2022-08-17T04:03:34.324Z,8.80
2022-08-17T04:04:37.714Z,8.40
2022-08-17T04:05:40.131Z,7.50
2022-08-17T04:06:43.386Z,8.60
2022-08-17T04:07:45.923Z,8.90
2022-08-17T04:08:48.285Z,7.50
2022-08-17T04:09:50.855Z,8.00
2022-08-17T04:12:09.110Z,8.60
2022-08-17T04:13:12.583Z,8.60
2022-08-17T04:14:15.453Z,9.40
2022-08-17T04:15:18.000Z,9.36
2022-08-17T04:16:21.166Z,9.20
2022-08-17T04:17:27.873Z,8.40
2022-08-17T04:18:31.236Z,8.10
2022-08-17T04:19:36.627Z,8.40
2022-08-17T04:20:39.369Z,9.50
2022-08-17T04:21:42.171Z,8.60
2022-08-17T04:23:03.578Z,9.70
2022-08-17T04:24:07.509Z,9.90
2022-08-17T04:26:53.118Z,8.30
2022-08-17T04:27:33.203Z,9.30
2022-08-17T04:28:35.443Z,9.60
2022-08-17T04:29:54.368Z,9.55
2022-08-17T04:30:43.521Z,9.30
2022-08-17T04:31:46.800Z,10.00
2022-08-17T04:34:05.824Z,9.50
2022-08-17T04:35:08.939Z,9.09
2022-08-17T04:36:13.874Z,10.50
2022-08-17T04:37:16.411Z,10.10
2022-08-17T04:38:22.285Z,9.10
2022-08-17T04:39:24.672Z,9.80
2022-08-17T04:40:27.634Z,9.00
2022-08-17T04:41:31.305Z,8.70
2022-08-17T04:42:33.622Z,10.30
2022-08-17T04:43:36.742Z,8.60
2022-08-17T04:44:39.046Z,10.00
2022-08-17T04:47:01.999Z,10.00
2022-08-17T04:48:04.534Z,10.20
2022-08-17T04:49:09.126Z,8.80
2022-08-17T04:50:11.952Z,10.00
2022-08-17T04:51:17.980Z,10.10
2022-08-17T04:52:29.699Z,10.80
2022-08-17T04:53:25.242Z,9.30
2022-08-17T04:54:28.531Z,9.50
2022-08-17T04:55:31.054Z,12.40
2022-08-17T04:56:34.179Z,12.80
2022-08-17T04:57:39.317Z,10.70
2022-08-17T04:58:49.896Z,10.40
2022-08-17T04:59:53.136Z,10.70
2022-08-17T05:00:55.702Z,8.00
2022-08-17T05:01:57.905Z,10.30
2022-08-17T05:03:00.328Z,8.80
2022-08-17T05:04:21.134Z,10.90
2022-08-17T05:05:26.350Z,11.50
2022-08-17T05:06:29.780Z,12.40
2022-08-17T05:07:33.016Z,9.40
2022-08-17T05:08:35.169Z,10.70
2022-08-17T05:09:37.639Z,11.50
2022-08-17T05:10:45.150Z,12.10
2022-08-17T05:11:48.357Z,11.80
2022-08-17T05:13:01.757Z,10.60
2022-08-17T05:14:04.313Z,11.50
2022-08-17T05:15:13.216Z,12.40
2022-08-17T05:16:16.571Z,11.30
2022-08-17T05:17:19.030Z,7.18
2022-08-17T05:18:21.728Z,11.60
2022-08-17T05:19:26.273Z,13.20
2022-08-17T05:20:30.346Z,10.90
2022-08-17T05:21:33.871Z,11.00
2022-08-17T05:22:38.569Z,10.00
2022-08-17T05:23:43.281Z,11.50
2022-08-17T05:24:53.802Z,12.00
2022-08-17T05:25:51.776Z,12.30
2022-08-17T05:26:54.966Z,10.90
2022-08-17T05:27:58.101Z,11.40
2022-08-17T05:29:02.758Z,11.20
2022-08-17T05:30:07.289Z,11.80
2022-08-17T05:31:09.834Z,8.60
2022-08-17T05:32:38.322Z,13.00
2022-08-17T05:33:41.487Z,11.90
2022-08-17T05:34:42.451Z,11.20
2022-08-17T05:35:46.247Z,11.20
2022-08-17T05:36:49.325Z,11.50
2022-08-17T05:37:52.471Z,11.20
2022-08-17T05:38:55.467Z,12.00
2022-08-17T05:40:11.444Z,9.70
2022-08-17T05:41:14.032Z,10.90
2022-08-17T05:42:19.824Z,11.50
2022-08-17T05:44:36.390Z,13.30
2022-08-17T05:45:55.362Z,11.70
2022-08-17T05:46:57.575Z,12.40
2022-08-17T05:48:00.139Z,13.30
2022-08-17T05:49:04.939Z,11.60
2022-08-17T05:50:10.345Z,13.10
2022-08-17T05:51:22.563Z,11.70
2022-08-17T05:52:29.129Z,13.00
2022-08-17T05:53:58.731Z,12.80
2022-08-17T05:55:25.669Z,13.70
2022-08-17T05:56:44.987Z,13.40
2022-08-17T05:58:11.273Z,14.20
2022-08-17T05:59:32.681Z,15.00
2022-08-17T06:00:48.669Z,14.40
2022-08-17T06:02:01.027Z,13.40
2022-08-17T06:03:25.305Z,13.00
2022-08-17T06:04:37.188Z,14.00
2022-08-17T06:07:11.193Z,12.30
2022-08-17T06:08:33.805Z,16.10
2022-08-17T06:11:01.764Z,14.70
2022-08-17T06:12:43.949Z,14.40
2022-08-17T06:15:32.115Z,13.30
2022-08-17T06:16:37.686Z,13.70
2022-08-17T06:17:41.059Z,13.70
2022-08-17T06:19:00.023Z,15.90
2022-08-17T06:20:06.000Z,13.60
2022-08-17T06:21:12.249Z,8.80
2022-08-17T06:22:16.014Z,13.50
2022-08-17T06:23:28.795Z,14.80
2022-08-17T06:24:35.297Z,14.00
2022-08-17T06:25:41.026Z,14.90
2022-08-17T06:26:43.671Z,13.80
2022-08-17T06:27:53.858Z,14.30
2022-08-17T06:29:00.913Z,10.80
2022-08-17T06:30:06.598Z,13.80
2022-08-17T06:31:18.635Z,14.00
2022-08-17T06:32:21.722Z,13.70
2022-08-17T06:33:31.346Z,12.90
2022-08-17T06:34:33.819Z,13.30
2022-08-17T06:37:29.054Z,13.60
2022-08-17T06:38:56.272Z,13.60
2022-08-17T06:41:53.444Z,12.90
2022-08-17T06:43:15.854Z,14.00
2022-08-17T06:44:43.152Z,13.10
2022-08-17T06:45:39.510Z,15.60
2022-08-17T06:46:43.794Z,14.70
2022-08-17T06:47:54.179Z,13.90
2022-08-17T06:49:15.791Z,13.40
2022-08-17T06:51:55.777Z,14.10
2022-08-17T06:53:21.876Z,13.70
2022-08-17T06:55:56.059Z,10.50
2022-08-17T06:57:18.100Z,13.70
2022-08-17T06:58:23.929Z,12.20
2022-08-17T06:59:55.777Z,12.00
2022-08-17T07:01:52.549Z,12.70
2022-08-17T07:03:00.251Z,13.80
2022-08-17T07:04:14.099Z,13.70
2022-08-17T07:05:18.799Z,16.10
2022-08-17T07:06:29.417Z,13.80
2022-08-17T07:07:33.216Z,13.20
2022-08-17T07:08:48.399Z,14.10
2022-08-17T07:09:50.843Z,15.10
2022-08-17T07:10:55.777Z,12.09
2022-08-17T07:12:04.271Z,13.80
2022-08-17T07:14:41.088Z,15.30
2022-08-17T07:15:43.889Z,13.50
2022-08-17T07:16:51.813Z,12.10
2022-08-17T07:17:54.236Z,14.10
2022-08-17T07:18:57.916Z,13.50
2022-08-17T07:21:26.724Z,13.10
2022-08-17T07:25:21.103Z,13.10
2022-08-17T07:26:26.327Z,14.30
2022-08-17T07:27:31.778Z,14.60
2022-08-17T07:28:35.822Z,12.20
2022-08-17T07:29:54.978Z,13.30
2022-08-17T07:30:57.738Z,11.80
2022-08-17T07:32:00.488Z,12.60
2022-08-17T07:33:13.452Z,14.18
2022-08-17T07:34:16.760Z,13.30
2022-08-17T07:35:41.006Z,13.30
2022-08-17T07:36:36.137Z,12.90
2022-08-17T07:37:40.387Z,13.40
2022-08-17T07:38:46.844Z,11.90
2022-08-17T07:39:59.619Z,13.40
2022-08-17T07:42:19.331Z,13.70
2022-08-17T07:43:41.870Z,13.90
2022-08-17T07:44:50.571Z,10.40
2022-08-17T07:46:19.452Z,14.40
2022-08-17T07:47:23.138Z,13.30
2022-08-17T07:48:25.907Z,16.73
2022-08-17T07:50:46.119Z,11.80
2022-08-17T07:51:52.419Z,12.50
2022-08-17T07:52:58.243Z,13.90
2022-08-17T07:55:30.260Z,12.80
2022-08-17T07:56:46.251Z,15.90
2022-08-17T07:57:52.493Z,14.70
2022-08-17T08:00:16.320Z,15.00
2022-08-17T08:01:19.083Z,15.00
2022-08-17T08:02:39.446Z,14.40
2022-08-17T08:03:42.668Z,14.80
2022-08-17T08:06:01.065Z,15.30
2022-08-17T08:07:06.811Z,14.80
2022-08-17T08:08:28.330Z,14.70
2022-08-17T08:09:36.400Z,14.80
2022-08-17T08:10:42.522Z,16.80
2022-08-17T08:11:48.505Z,18.90
2022-08-17T08:13:14.032Z,23.20
2022-08-17T08:14:29.884Z,22.50
2022-08-17T08:15:45.153Z,29.60
2022-08-17T08:17:01.461Z,28.20
2022-08-17T08:18:07.400Z,28.80
2022-08-17T08:19:11.695Z,27.90
2022-08-17T08:20:52.348Z,25.60
2022-08-17T08:21:48.472Z,22.80
2022-08-17T08:22:58.035Z,24.80
2022-08-17T08:24:22.596Z,25.20
2022-08-17T08:27:06.149Z,22.40
2022-08-17T08:29:50.601Z,20.20
2022-08-17T08:31:25.912Z,20.80
2022-08-17T08:34:58.816Z,20.10
2022-08-17T08:35:53.288Z,20.50
2022-08-17T08:37:17.769Z,16.10
2022-08-17T08:38:23.296Z,19.30
2022-08-17T08:39:45.047Z,17.90
2022-08-17T08:41:14.198Z,17.80
2022-08-17T08:42:51.454Z,18.70
2022-08-17T08:45:00.196Z,19.10
2022-08-17T08:45:47.817Z,17.60
2022-08-17T08:47:06.501Z,14.00
2022-08-17T08:48:46.115Z,16.40
2022-08-17T08:50:03.276Z,19.20
2022-08-17T08:52:25.766Z,18.00
2022-08-17T08:53:51.657Z,18.60
2022-08-17T08:54:58.186Z,18.90
2022-08-17T08:56:22.940Z,19.10
2022-08-17T08:57:38.279Z,18.20
2022-08-17T08:58:44.418Z,15.50
2022-08-17T08:59:58.386Z,16.30
2022-08-17T09:01:03.941Z,16.60
2022-08-17T09:02:10.296Z,16.40
2022-08-17T09:03:52.868Z,14.90
2022-08-17T09:05:13.527Z,16.90
2022-08-17T09:06:04.039Z,16.80
2022-08-17T09:08:55.566Z,15.30
2022-08-17T09:10:18.512Z,14.40
2022-08-17T09:11:36.583Z,14.30
2022-08-17T09:13:05.967Z,14.10
2022-08-17T09:15:34.527Z,15.60
2022-08-17T09:16:42.755Z,14.60
2022-08-17T09:18:30.685Z,15.90
2022-08-17T09:21:04.558Z,14.80
2022-08-17T09:22:20.485Z,16.60
2022-08-17T09:23:35.823Z,14.00
2022-08-17T09:24:47.158Z,14.30
2022-08-17T09:25:52.872Z,12.80
2022-08-17T09:27:02.020Z,14.20
2022-08-17T09:28:09.462Z,15.70
2022-08-17T09:29:14.371Z,15.00
2022-08-17T09:30:18.835Z,13.80
2022-08-17T09:31:26.042Z,12.82
2022-08-17T09:32:40.631Z,14.30
2022-08-17T09:33:46.224Z,15.10
2022-08-17T09:34:53.921Z,15.10
2022-08-17T09:36:06.160Z,14.70
2022-08-17T09:37:17.696Z,14.80
2022-08-17T09:38:51.366Z,15.40
2022-08-17T09:40:16.830Z,14.50
2022-08-17T09:41:49.557Z,13.30
2022-08-17T09:44:23.447Z,13.70
2022-08-17T09:45:39.621Z,15.30
2022-08-17T09:46:53.801Z,14.70
2022-08-17T09:49:30.150Z,13.60
2022-08-17T09:51:04.246Z,14.70
2022-08-17T09:51:46.566Z,14.30
2022-08-17T09:52:53.076Z,11.10
2022-08-17T09:54:05.170Z,13.50
2022-08-17T09:55:00.177Z,14.00
2022-08-17T09:56:25.695Z,12.20
2022-08-17T09:57:43.961Z,12.60
2022-08-17T09:59:17.029Z,13.90
2022-08-17T10:00:25.941Z,14.20
2022-08-17T10:01:43.175Z,13.70
2022-08-17T10:04:20.059Z,13.70
2022-08-17T10:07:02.109Z,13.80
2022-08-17T10:08:21.808Z,12.90
2022-08-17T10:11:07.151Z,14.20
2022-08-17T10:12:21.619Z,13.00
2022-08-17T10:15:07.952Z,15.40
2022-08-17T10:16:24.877Z,13.80
2022-08-17T10:17:45.563Z,13.70
2022-08-17T10:18:57.963Z,13.00
2022-08-17T10:20:04.562Z,13.70
2022-08-17T10:21:08.710Z,14.40
2022-08-17T10:22:34.898Z,14.20
2022-08-17T10:23:24.683Z,14.10
2022-08-17T10:24:34.148Z,10.20
2022-08-17T10:25:54.226Z,13.20
2022-08-17T10:26:55.994Z,13.30
2022-08-17T10:27:50.925Z,12.20
2022-08-17T10:28:57.264Z,9.80
2022-08-17T10:30:02.257Z,12.90
2022-08-17T10:31:30.821Z,13.70
2022-08-17T10:32:10.456Z,14.40
2022-08-17T10:34:46.186Z,13.10
2022-08-17T10:36:01.599Z,12.90
2022-08-17T10:37:29.417Z,14.00
2022-08-17T10:38:44.615Z,13.80
2022-08-17T10:40:27.103Z,12.60
2022-08-17T10:41:42.979Z,13.90
2022-08-17T10:42:58.491Z,13.00
2022-08-17T10:44:40.004Z,13.00
2022-08-17T10:45:28.236Z,13.30
2022-08-17T10:46:51.401Z,13.80
2022-08-17T10:48:09.877Z,12.90
2022-08-17T10:49:19.900Z,13.40
2022-08-17T10:52:00.986Z,13.90
2022-08-17T10:53:04.799Z,12.60
2022-08-17T10:55:39.919Z,13.10
2022-08-17T10:56:47.129Z,13.80
2022-08-17T10:57:51.149Z,11.10
2022-08-17T10:58:58.518Z,11.30
2022-08-17T11:01:41.079Z,13.70
2022-08-17T11:02:52.459Z,13.00
2022-08-17T11:03:56.234Z,13.90
2022-08-17T11:05:31.280Z,11.90
2022-08-17T11:06:52.765Z,13.20
2022-08-17T11:08:33.218Z,14.30
2022-08-17T11:10:05.941Z,11.40
2022-08-17T11:11:25.455Z,11.60
2022-08-17T11:12:34.560Z,14.40
2022-08-17T11:14:03.461Z,12.50
2022-08-17T11:15:33.603Z,7.40
2022-08-17T11:16:59.631Z,11.70
2022-08-17T11:18:38.921Z,11.10
2022-08-17T11:19:57.243Z,13.00
2022-08-17T11:21:16.152Z,11.70
2022-08-17T11:22:39.537Z,13.50
2022-08-17T11:24:10.088Z,12.90
2022-08-17T11:25:17.368Z,12.10
2022-08-17T11:26:26.630Z,13.30
2022-08-17T11:27:31.615Z,13.30
2022-08-17T11:28:37.880Z,14.60
2022-08-17T11:30:01.279Z,13.30
2022-08-17T11:32:47.690Z,13.20
2022-08-17T11:34:07.895Z,12.90
2022-08-17T11:35:26.875Z,14.60
2022-08-17T11:36:54.136Z,14.10
2022-08-17T11:38:15.842Z,12.70
2022-08-17T11:41:02.092Z,15.50
2022-08-17T11:42:23.489Z,13.50
2022-08-17T11:43:39.580Z,14.70
2022-08-17T11:44:47.719Z,14.20
2022-08-17T11:46:20.766Z,13.20
2022-08-17T11:47:52.950Z,11.80
2022-08-17T11:49:10.204Z,13.20
2022-08-17T11:50:38.311Z,14.40
2022-08-17T11:51:56.393Z,14.90
2022-08-17T11:53:00.401Z,14.90
2022-08-17T11:54:31.843Z,14.20
2022-08-17T11:56:45.537Z,14.10
2022-08-17T11:57:59.915Z,12.80
2022-08-17T11:59:03.077Z,14.30
2022-08-17T12:01:25.987Z,13.60
2022-08-17T12:02:47.500Z,13.40
2022-08-17T12:03:55.510Z,13.70
2022-08-17T12:05:04.733Z,15.60
2022-08-17T12:06:16.710Z,13.80
2022-08-17T12:07:20.925Z,14.40
2022-08-17T12:08:23.357Z,12.20
2022-08-17T12:11:03.334Z,14.00
2022-08-17T12:12:18.237Z,14.40
2022-08-17T12:13:22.083Z,15.30
2022-08-17T12:15:43.635Z,13.10
2022-08-17T12:16:45.851Z,13.70
2022-08-17T12:17:53.412Z,13.60
2022-08-17T12:18:57.854Z,14.00
2022-08-17T12:20:21.794Z,13.40
2022-08-17T12:21:31.638Z,14.50
2022-08-17T12:22:52.975Z,13.60
2022-08-17T12:25:20.768Z,12.30
2022-08-17T12:26:29.896Z,14.30
2022-08-17T12:27:57.744Z,12.10
2022-08-17T12:28:48.875Z,13.30
2022-08-17T12:29:52.365Z,14.40
2022-08-17T12:31:00.706Z,14.30
2022-08-17T12:32:05.396Z,14.40
2022-08-17T12:33:11.679Z,13.60
2022-08-17T12:34:18.426Z,13.50
2022-08-17T12:35:26.784Z,15.20
2022-08-17T12:36:29.588Z,12.20
2022-08-17T12:37:33.645Z,14.10
2022-08-17T12:38:36.796Z,11.60
2022-08-17T12:39:39.212Z,12.20
2022-08-17T12:40:52.201Z,12.40
2022-08-17T12:43:19.883Z,13.80
2022-08-17T12:44:24.952Z,12.80
2022-08-17T12:45:30.822Z,13.30
2022-08-17T12:49:29.110Z,11.80
2022-08-17T12:50:32.274Z,13.50
2022-08-17T12:51:35.328Z,14.18
2022-08-17T12:52:39.264Z,12.70
2022-08-17T12:53:41.749Z,13.00
2022-08-17T12:54:56.775Z,9.80
2022-08-17T12:55:59.756Z,11.80
2022-08-17T12:58:25.869Z,12.30
2022-08-17T12:59:29.613Z,12.60
2022-08-17T13:00:36.266Z,13.50
2022-08-17T13:03:16.882Z,14.10
2022-08-17T13:04:19.160Z,11.60
2022-08-17T13:05:29.981Z,12.80
2022-08-17T13:06:34.633Z,14.40
2022-08-17T13:07:41.530Z,12.20
2022-08-17T13:08:45.775Z,14.20
2022-08-17T13:09:50.320Z,12.60
2022-08-17T13:12:09.173Z,12.30
2022-08-17T13:13:21.604Z,12.73
2022-08-17T13:14:23.929Z,13.30
2022-08-17T13:16:48.898Z,12.90
2022-08-17T13:18:07.687Z,12.50
2022-08-17T13:19:14.802Z,12.60
2022-08-17T13:20:19.916Z,13.10
2022-08-17T13:21:27.119Z,12.60
2022-08-17T13:22:30.631Z,12.70
2022-08-17T13:23:33.115Z,12.00
2022-08-17T13:24:40.698Z,14.10
2022-08-17T13:25:43.816Z,12.00
2022-08-17T13:27:08.267Z,13.30
2022-08-17T13:28:12.593Z,12.20
2022-08-17T13:29:38.742Z,12.30
2022-08-17T13:30:41.249Z,12.80
2022-08-17T13:31:51.975Z,13.10
2022-08-17T13:32:50.006Z,12.60
2022-08-17T13:33:52.540Z,11.90
2022-08-17T13:35:15.344Z,12.09
2022-08-17T13:36:06.931Z,11.70
2022-08-17T13:37:32.605Z,13.40
2022-08-17T13:38:42.069Z,12.80
2022-08-17T13:39:44.594Z,12.10
2022-08-17T13:40:50.531Z,11.60
2022-08-17T13:41:53.813Z,12.00
2022-08-17T13:42:56.617Z,12.60
2022-08-17T13:43:59.463Z,11.90
2022-08-17T13:45:34.784Z,12.70
2022-08-17T13:47:22.547Z,11.10
2022-08-17T13:49:48.210Z,12.20
2022-08-17T13:51:00.889Z,13.00
2022-08-17T13:52:04.694Z,11.80
2022-08-17T13:53:23.246Z,12.40
2022-08-17T13:55:39.747Z,12.20
2022-08-17T13:58:04.194Z,9.50
2022-08-17T13:59:07.149Z,11.60
2022-08-17T14:00:29.102Z,10.90
2022-08-17T14:01:34.491Z,10.80
2022-08-17T14:02:37.985Z,9.90
2022-08-17T14:03:41.066Z,11.50
2022-08-17T14:04:46.402Z,11.10
2022-08-17T14:05:49.167Z,10.50
2022-08-17T14:06:55.410Z,11.60
2022-08-17T14:08:00.075Z,10.70
2022-08-17T14:09:03.335Z,11.50
2022-08-17T14:10:12.117Z,12.10
2022-08-17T14:11:15.827Z,9.90
2022-08-17T14:12:21.983Z,10.50
2022-08-17T14:13:24.296Z,9.40
2022-08-17T14:14:26.807Z,12.80
2022-08-17T14:15:54.514Z,12.10
2022-08-17T14:16:35.145Z,11.30
2022-08-17T14:17:48.708Z,12.00
2022-08-17T14:18:56.075Z,11.20
2022-08-17T14:19:46.804Z,11.00
2022-08-17T14:20:51.198Z,11.20
2022-08-17T14:21:55.723Z,10.80
2022-08-17T14:22:59.170Z,11.20
2022-08-17T14:24:01.665Z,11.10
2022-08-17T14:25:06.074Z,10.80
2022-08-17T14:26:11.156Z,11.50
2022-08-17T14:27:13.570Z,11.90
2022-08-17T14:28:15.829Z,10.70
2022-08-17T14:29:22.000Z,11.70
2022-08-17T14:30:25.816Z,9.70
2022-08-17T14:31:31.903Z,11.70
2022-08-17T14:32:36.422Z,12.40
2022-08-17T14:33:38.817Z,10.70
2022-08-17T14:34:41.301Z,10.30
2022-08-17T14:35:43.536Z,11.30
2022-08-17T14:36:48.740Z,10.40
2022-08-17T14:37:51.563Z,11.40
2022-08-17T14:38:54.860Z,10.40
2022-08-17T14:40:00.000Z,10.60
2022-08-17T14:41:03.114Z,11.30
2022-08-17T14:42:06.669Z,9.90
2022-08-17T14:43:09.189Z,11.40
2022-08-17T14:44:13.085Z,11.50
2022-08-17T14:45:31.662Z,11.00
2022-08-17T14:46:21.917Z,11.30
2022-08-17T14:47:24.565Z,11.55
2022-08-17T14:48:26.835Z,10.40
2022-08-17T14:49:30.319Z,12.80
2022-08-17T14:50:36.937Z,10.70
2022-08-17T14:51:44.147Z,10.40
2022-08-17T14:52:44.343Z,9.30
2022-08-17T14:53:47.698Z,10.70
2022-08-17T14:54:50.707Z,7.20
2022-08-17T14:55:53.713Z,10.00
2022-08-17T14:57:22.193Z,11.20
2022-08-17T14:58:01.813Z,11.40
2022-08-17T14:59:04.914Z,11.60
2022-08-17T15:00:08.791Z,11.10
2022-08-17T15:01:12.527Z,11.70
2022-08-17T15:02:15.055Z,11.10
2022-08-17T15:03:19.888Z,3.50
2022-08-17T15:04:22.335Z,10.30
2022-08-17T15:05:27.453Z,11.90
2022-08-17T15:06:30.176Z,12.00
2022-08-17T15:07:32.606Z,3.90
2022-08-17T15:08:36.461Z,10.40
2022-08-17T15:09:39.080Z,10.30
2022-08-17T15:10:43.263Z,10.55
2022-08-17T15:11:45.620Z,11.60
2022-08-17T15:12:48.694Z,11.40
2022-08-17T15:13:52.926Z,11.30
2022-08-17T15:14:55.800Z,11.30
2022-08-17T15:16:00.040Z,10.80
2022-08-17T15:17:03.481Z,12.00
2022-08-17T15:18:06.760Z,11.30
2022-08-17T15:19:09.119Z,11.30
2022-08-17T15:21:25.935Z,10.40
2022-08-17T15:22:28.122Z,11.30
2022-08-17T15:23:32.330Z,10.10
2022-08-17T15:24:34.848Z,12.40
2022-08-17T15:25:38.350Z,10.80
2022-08-17T15:26:41.222Z,7.20
2022-08-17T15:27:43.780Z,11.30
2022-08-17T15:28:53.513Z,12.60
2022-08-17T15:29:52.337Z,10.90
2022-08-17T15:30:54.766Z,10.82
2022-08-17T15:32:00.696Z,11.40
2022-08-17T15:33:01.775Z,10.90
2022-08-17T15:34:04.618Z,10.60
2022-08-17T15:35:09.331Z,10.90
2022-08-17T15:36:12.452Z,12.10
2022-08-17T15:37:15.290Z,8.55
2022-08-17T15:38:17.842Z,12.00
2022-08-17T15:39:21.031Z,10.40
2022-08-17T15:40:24.480Z,11.09
2022-08-17T15:41:26.912Z,11.80
2022-08-17T15:42:31.462Z,11.50
2022-08-17T15:43:35.030Z,10.80
2022-08-17T15:44:38.749Z,8.70
2022-08-17T15:45:42.364Z,9.70
2022-08-17T15:46:46.015Z,11.30
2022-08-17T15:47:48.435Z,11.10
2022-08-17T15:50:06.282Z,12.40
2022-08-17T15:51:13.207Z,11.00
2022-08-17T15:52:23.973Z,11.00
2022-08-17T15:53:26.496Z,9.80
2022-08-17T15:54:34.476Z,11.10
2022-08-17T15:55:34.429Z,11.30
2022-08-17T15:56:37.864Z,11.60
2022-08-17T15:57:40.297Z,10.00
2022-08-17T15:58:44.205Z,10.09
2022-08-17T15:59:46.969Z,11.20
2022-08-17T16:01:13.956Z,11.20
2022-08-17T16:03:14.597Z,10.50
2022-08-17T16:03:15.205Z,10.50
2022-08-17T16:04:26.426Z,8.20
2022-08-17T16:05:11.321Z,12.30
2022-08-17T16:06:19.174Z,10.50
2022-08-17T16:07:26.553Z,11.40
2022-08-17T16:08:28.602Z,10.10
2022-08-17T16:09:31.582Z,11.20
2022-08-17T16:10:36.111Z,10.90
2022-08-17T16:11:38.464Z,10.50